Adrian, MN (56110)

4:02 PM CDT en Septiembre 01, 2014 (GMT -0500)
Luverne | Change Station
CLOSE
Current Station
Aeropuerto
Location: Luverne,
Altura: 1430 ft
Estaciones meteorológicas cercanas

Alt 1430 ft 43.62 °N, 96.21 °W | Updated 8 minutes ago

Clear
Despejado
75 ° F
Sensación térmica 75 ° F
N
12
Viento Variable Viento desde ONO

Hoy
Alta -- | Baja -- ° F
--% Posibilidad de precipitaciones
Ayer
Alta -- | Baja -- ° F
Precip. -- pul
6:47 AM 7:59 PM
Creciente, 44% visible
Presión 29.85 pul
Visibilidad 10.0 Millas
Nubes Despejado
Punto de rocío 59 ° F
Humedad 57%
Precipitaciones 0.00 pul
Espesor de la nieve No disponible.
UV 6 de una escala de 12
Polen 7.80 de una escala de 12
Calidad del aire No disponible.
Flu Activity No disponible.
METAR KLYV 012054Z AUTO 30010KT 10SM CLR 24/15 A2985 RMK AO2

More Conditions Fewer Conditions

Presión 29.85 pul
Visibilidad 10.0 Millas
Nubes Despejado
Punto de rocío 59 ° F
Humedad 57%
Precipitaciones 0.00 pul
Espesor de la nieve No disponible.
UV 6 de una escala de 12
Polen 7.80 de una escala de 12
Calidad del aire No disponible.
Flu Activity No disponible.
METAR KLYV 012054Z AUTO 30010KT 10SM CLR 24/15 A2985 RMK AO2

More Conditions Fewer Conditions

10-Day Weather Forecast

Almanac

Astronomía

Sep. 01, 2014 Salida Puesta
Hora real 6:47 AM CDT 7:59 PM CDT
Crepúsculo civil 6:17 AM CDT 8:28 PM CDT
Crepúsculo náutico 5:42 AM CDT 9:03 PM CDT
Crepúsculo astronómico 5:05 AM CDT 9:41 PM CDT
Luna 1:46 PM CDT 11:48 PM CDT
Horas de luz 14h 10m
Horas de luz
13h 11m
Tomorrow will be 2m 52s shorter.
Creciente, 44% of the Moon is Illuminated
Hoy
Creciente
Sep 2
Cuarto creciente
Sep 8
Luna llena
Sep 15
Cuarto menguante
Sep 24
Nueva

Extremos de hoy

Máximos del estado Bajos del estado

Community

WunderPhotos

Upload Photos

1,749,407 ¡fotos cargadas!

WunderBlogs® & News

Nearby

Grosos de nieve

Estación Profundido Altura
No tenemos constancia de nieve nueva.

Actividad de terremotos

Ciudad Distance Mag. Tiempo y dato
No hay informes recientes de la actividad sísmica.
Magnitud mínima muestra es 2,5.

Temperaturas de aguas costeras

Lugar Temperatura
Sin partes meteorológicos de las estaciones

Estaciones meteorológicas cercanas